Terminal Aerodrome Forecast
Issued by NWS

Home | Current Version | Previous Version | Text Only | Print | Product List | Glossary On
Versions: 1 2 3 4 5 6 7 8 9 10 11 12 13 14 15
000
FTUS45 KFGZ 211700
TAFPRC
TAF
KPRC 211737Z 2118/2218 19007KT P6SM SCT050 BKN060 BKN090
     FM212000 20009G18KT P6SM FEW050 SCT090
     FM220200 20005KT P6SM SKC
     FM221400 VRB06KT P6SM SKC=

USA.gov is the U.S. government's official web portal to all federal, state and local government web resources and services.